sensor_id;sensor_type;location;lat;lon;timestamp;P1;durP1;ratioP1;P2;durP2;ratioP2
71570;SDS011;59407;42.682;23.322;2022-11-10T00:02:12;59.67;;;30.03;;
71570;SDS011;59407;42.682;23.322;2022-11-10T00:04:37;55.90;;;29.43;;
71570;SDS011;59407;42.682;23.322;2022-11-10T00:07:03;56.10;;;30.20;;
71570;SDS011;59407;42.682;23.322;2022-11-10T00:09:29;60.38;;;30.85;;
71570;SDS011;59407;42.682;23.322;2022-11-10T00:11:54;57.80;;;30.00;;
71570;SDS011;59407;42.682;23.322;2022-11-10T00:14:20;55.67;;;30.40;;
71570;SDS011;59407;42.682;23.322;2022-11-10T00:17:04;62.30;;;29.50;;
71570;SDS011;59407;42.682;23.322;2022-11-10T00:19:30;58.42;;;30.45;;
71570;SDS011;59407;42.682;23.322;2022-11-10T00:21:56;60.57;;;30.07;;
71570;SDS011;59407;42.682;23.322;2022-11-10T00:24:23;54.65;;;29.60;;
71570;SDS011;59407;42.682;23.322;2022-11-10T00:26:48;67.65;;;31.10;;
71570;SDS011;59407;42.682;23.322;2022-11-10T00:29:14;54.23;;;28.00;;
71570;SDS011;59407;42.682;23.322;2022-11-10T00:31:39;56.87;;;29.40;;
71570;SDS011;59407;42.682;23.322;2022-11-10T00:34:05;55.97;;;28.52;;
71570;SDS011;59407;42.682;23.322;2022-11-10T00:36:33;60.92;;;30.13;;
71570;SDS011;59407;42.682;23.322;2022-11-10T00:38:58;54.63;;;28.47;;
71570;SDS011;59407;42.682;23.322;2022-11-10T00:41:24;53.17;;;27.48;;
71570;SDS011;59407;42.682;23.322;2022-11-10T00:43:49;59.27;;;28.13;;
71570;SDS011;59407;42.682;23.322;2022-11-10T00:46:15;54.17;;;28.27;;
71570;SDS011;59407;42.682;23.322;2022-11-10T00:48:41;56.65;;;26.60;;
71570;SDS011;59407;42.682;23.322;2022-11-10T00:51:06;55.80;;;27.57;;
71570;SDS011;59407;42.682;23.322;2022-11-10T00:53:33;56.60;;;29.67;;
71570;SDS011;59407;42.682;23.322;2022-11-10T00:55:58;56.13;;;29.20;;
71570;SDS011;59407;42.682;23.322;2022-11-10T00:58:24;57.90;;;29.97;;
71570;SDS011;59407;42.682;23.322;2022-11-10T01:00:49;59.57;;;28.90;;
71570;SDS011;59407;42.682;23.322;2022-11-10T01:03:15;53.63;;;28.20;;
71570;SDS011;59407;42.682;23.322;2022-11-10T01:05:41;58.13;;;29.23;;
71570;SDS011;59407;42.682;23.322;2022-11-10T01:08:09;56.75;;;30.05;;
71570;SDS011;59407;42.682;23.322;2022-11-10T01:10:34;54.92;;;28.85;;
71570;SDS011;59407;42.682;23.322;2022-11-10T01:13:00;60.40;;;30.77;;
71570;SDS011;59407;42.682;23.322;2022-11-10T01:15:25;63.03;;;31.70;;
71570;SDS011;59407;42.682;23.322;2022-11-10T01:17:52;56.33;;;28.88;;
71570;SDS011;59407;42.682;23.322;2022-11-10T01:20:18;54.67;;;26.63;;
71570;SDS011;59407;42.682;23.322;2022-11-10T01:22:44;53.20;;;25.83;;
71570;SDS011;59407;42.682;23.322;2022-11-10T01:25:11;52.47;;;25.57;;
71570;SDS011;59407;42.682;23.322;2022-11-10T01:27:36;53.67;;;27.10;;
71570;SDS011;59407;42.682;23.322;2022-11-10T01:30:02;52.13;;;26.20;;
71570;SDS011;59407;42.682;23.322;2022-11-10T01:32:28;48.65;;;25.70;;
71570;SDS011;59407;42.682;23.322;2022-11-10T01:34:54;55.70;;;28.37;;
71570;SDS011;59407;42.682;23.322;2022-11-10T01:37:21;52.47;;;26.77;;
71570;SDS011;59407;42.682;23.322;2022-11-10T01:39:46;52.95;;;27.55;;
71570;SDS011;59407;42.682;23.322;2022-11-10T01:42:12;53.90;;;26.57;;
71570;SDS011;59407;42.682;23.322;2022-11-10T01:44:38;54.75;;;27.08;;
71570;SDS011;59407;42.682;23.322;2022-11-10T01:47:07;47.60;;;26.05;;
71570;SDS011;59407;42.682;23.322;2022-11-10T01:49:33;48.23;;;25.97;;
71570;SDS011;59407;42.682;23.322;2022-11-10T01:52:04;51.38;;;27.40;;
71570;SDS011;59407;42.682;23.322;2022-11-10T01:54:33;54.90;;;25.97;;
71570;SDS011;59407;42.682;23.322;2022-11-10T01:57:02;56.45;;;27.75;;
71570;SDS011;59407;42.682;23.322;2022-11-10T01:59:31;53.08;;;28.25;;
71570;SDS011;59407;42.682;23.322;2022-11-10T02:02:15;54.55;;;26.70;;
71570;SDS011;59407;42.682;23.322;2022-11-10T02:04:46;53.15;;;25.45;;
71570;SDS011;59407;42.682;23.322;2022-11-10T02:07:12;49.33;;;24.80;;
71570;SDS011;59407;42.682;23.322;2022-11-10T02:09:38;50.33;;;26.98;;
71570;SDS011;59407;42.682;23.322;2022-11-10T02:12:03;52.90;;;26.27;;
71570;SDS011;59407;42.682;23.322;2022-11-10T02:14:29;53.45;;;27.38;;
71570;SDS011;59407;42.682;23.322;2022-11-10T02:16:55;55.17;;;25.87;;
71570;SDS011;59407;42.682;23.322;2022-11-10T02:19:21;54.50;;;25.80;;
71570;SDS011;59407;42.682;23.322;2022-11-10T02:21:48;47.90;;;24.47;;
71570;SDS011;59407;42.682;23.322;2022-11-10T02:24:13;55.78;;;27.30;;
71570;SDS011;59407;42.682;23.322;2022-11-10T02:26:42;48.93;;;25.77;;
71570;SDS011;59407;42.682;23.322;2022-11-10T02:29:11;52.38;;;24.95;;
71570;SDS011;59407;42.682;23.322;2022-11-10T02:31:37;56.20;;;27.77;;
71570;SDS011;59407;42.682;23.322;2022-11-10T02:34:02;50.60;;;26.93;;
71570;SDS011;59407;42.682;23.322;2022-11-10T02:36:27;50.47;;;26.00;;
71570;SDS011;59407;42.682;23.322;2022-11-10T02:38:53;46.87;;;25.00;;
71570;SDS011;59407;42.682;23.322;2022-11-10T02:41:18;54.10;;;26.25;;
71570;SDS011;59407;42.682;23.322;2022-11-10T02:43:44;46.17;;;24.03;;
71570;SDS011;59407;42.682;23.322;2022-11-10T02:46:10;53.03;;;27.97;;
71570;SDS011;59407;42.682;23.322;2022-11-10T02:48:35;48.20;;;24.40;;
71570;SDS011;59407;42.682;23.322;2022-11-10T02:51:00;51.33;;;26.23;;
71570;SDS011;59407;42.682;23.322;2022-11-10T02:53:26;51.60;;;27.53;;
71570;SDS011;59407;42.682;23.322;2022-11-10T02:55:52;52.00;;;26.75;;
71570;SDS011;59407;42.682;23.322;2022-11-10T02:58:17;48.60;;;24.37;;
71570;SDS011;59407;42.682;23.322;2022-11-10T03:00:42;52.90;;;24.80;;
71570;SDS011;59407;42.682;23.322;2022-11-10T03:03:08;52.80;;;25.33;;
71570;SDS011;59407;42.682;23.322;2022-11-10T03:05:33;49.50;;;25.80;;
71570;SDS011;59407;42.682;23.322;2022-11-10T03:07:59;54.35;;;25.52;;
71570;SDS011;59407;42.682;23.322;2022-11-10T03:10:26;48.70;;;23.83;;
71570;SDS011;59407;42.682;23.322;2022-11-10T03:12:53;48.70;;;23.98;;
71570;SDS011;59407;42.682;23.322;2022-11-10T03:15:20;47.88;;;24.95;;
71570;SDS011;59407;42.682;23.322;2022-11-10T03:17:46;52.95;;;25.50;;
71570;SDS011;59407;42.682;23.322;2022-11-10T03:20:11;55.43;;;27.33;;
71570;SDS011;59407;42.682;23.322;2022-11-10T03:22:38;47.42;;;25.42;;
71570;SDS011;59407;42.682;23.322;2022-11-10T03:25:03;48.30;;;25.70;;
71570;SDS011;59407;42.682;23.322;2022-11-10T03:27:31;49.95;;;24.55;;
71570;SDS011;59407;42.682;23.322;2022-11-10T03:29:56;43.93;;;23.30;;
71570;SDS011;59407;42.682;23.322;2022-11-10T03:32:22;44.78;;;21.85;;
71570;SDS011;59407;42.682;23.322;2022-11-10T03:34:47;51.70;;;24.50;;
71570;SDS011;59407;42.682;23.322;2022-11-10T03:37:13;50.83;;;25.33;;
71570;SDS011;59407;42.682;23.322;2022-11-10T03:39:38;48.80;;;24.25;;
71570;SDS011;59407;42.682;23.322;2022-11-10T03:42:04;46.90;;;24.53;;
71570;SDS011;59407;42.682;23.322;2022-11-10T03:44:30;48.40;;;23.30;;
71570;SDS011;59407;42.682;23.322;2022-11-10T03:46:56;66.80;;;37.10;;
71570;SDS011;59407;42.682;23.322;2022-11-10T03:49:22;49.70;;;28.00;;
71570;SDS011;59407;42.682;23.322;2022-11-10T03:51:47;50.63;;;26.83;;
71570;SDS011;59407;42.682;23.322;2022-11-10T03:54:13;50.50;;;25.77;;
71570;SDS011;59407;42.682;23.322;2022-11-10T03:56:39;45.40;;;23.52;;
71570;SDS011;59407;42.682;23.322;2022-11-10T03:59:04;54.13;;;25.00;;
71570;SDS011;59407;42.682;23.322;2022-11-10T04:01:30;51.00;;;25.20;;
71570;SDS011;59407;42.682;23.322;2022-11-10T04:03:56;47.30;;;23.07;;
71570;SDS011;59407;42.682;23.322;2022-11-10T04:06:21;52.77;;;23.53;;
71570;SDS011;59407;42.682;23.322;2022-11-10T04:09:13;47.92;;;22.85;;
71570;SDS011;59407;42.682;23.322;2022-11-10T04:11:38;47.30;;;24.73;;
71570;SDS011;59407;42.682;23.322;2022-11-10T04:14:22;50.28;;;24.23;;
71570;SDS011;59407;42.682;23.322;2022-11-10T04:17:06;49.15;;;23.95;;
71570;SDS011;59407;42.682;23.322;2022-11-10T04:19:33;52.37;;;22.87;;
71570;SDS011;59407;42.682;23.322;2022-11-10T04:21:58;50.08;;;23.98;;
71570;SDS011;59407;42.682;23.322;2022-11-10T04:24:24;48.90;;;23.27;;
71570;SDS011;59407;42.682;23.322;2022-11-10T04:26:49;49.80;;;24.83;;
71570;SDS011;59407;42.682;23.322;2022-11-10T04:29:15;42.83;;;22.23;;
71570;SDS011;59407;42.682;23.322;2022-11-10T04:31:42;50.10;;;26.45;;
71570;SDS011;59407;42.682;23.322;2022-11-10T04:34:10;48.38;;;23.15;;
71570;SDS011;59407;42.682;23.322;2022-11-10T04:36:37;52.53;;;24.73;;
71570;SDS011;59407;42.682;23.322;2022-11-10T04:39:03;50.47;;;24.83;;
71570;SDS011;59407;42.682;23.322;2022-11-10T04:41:29;54.25;;;24.77;;
71570;SDS011;59407;42.682;23.322;2022-11-10T04:43:56;47.95;;;24.20;;
71570;SDS011;59407;42.682;23.322;2022-11-10T04:48:54;46.63;;;22.58;;
71570;SDS011;59407;42.682;23.322;2022-11-10T04:51:23;48.78;;;24.33;;
71570;SDS011;59407;42.682;23.322;2022-11-10T04:53:49;47.97;;;23.17;;
71570;SDS011;59407;42.682;23.322;2022-11-10T04:56:15;48.83;;;23.37;;
71570;SDS011;59407;42.682;23.322;2022-11-10T04:58:44;48.17;;;24.00;;
71570;SDS011;59407;42.682;23.322;2022-11-10T05:01:11;51.38;;;24.95;;
71570;SDS011;59407;42.682;23.322;2022-11-10T05:03:38;45.55;;;22.77;;
71570;SDS011;59407;42.682;23.322;2022-11-10T05:06:04;51.73;;;24.90;;
71570;SDS011;59407;42.682;23.322;2022-11-10T05:08:29;47.83;;;25.45;;
71570;SDS011;59407;42.682;23.322;2022-11-10T05:10:55;53.97;;;26.63;;
71570;SDS011;59407;42.682;23.322;2022-11-10T05:13:20;50.30;;;25.37;;
71570;SDS011;59407;42.682;23.322;2022-11-10T05:15:46;62.87;;;29.63;;
71570;SDS011;59407;42.682;23.322;2022-11-10T05:18:11;58.22;;;26.52;;
71570;SDS011;59407;42.682;23.322;2022-11-10T05:20:36;52.90;;;26.37;;
71570;SDS011;59407;42.682;23.322;2022-11-10T05:23:02;58.37;;;26.90;;
71570;SDS011;59407;42.682;23.322;2022-11-10T05:25:46;50.45;;;26.38;;
71570;SDS011;59407;42.682;23.322;2022-11-10T05:28:12;52.90;;;26.80;;
71570;SDS011;59407;42.682;23.322;2022-11-10T05:30:40;57.03;;;28.33;;
71570;SDS011;59407;42.682;23.322;2022-11-10T05:33:05;51.87;;;27.73;;
71570;SDS011;59407;42.682;23.322;2022-11-10T05:35:31;59.78;;;27.50;;
71570;SDS011;59407;42.682;23.322;2022-11-10T05:37:57;59.40;;;26.73;;
71570;SDS011;59407;42.682;23.322;2022-11-10T05:40:23;50.00;;;26.27;;
71570;SDS011;59407;42.682;23.322;2022-11-10T05:42:49;55.33;;;26.83;;
71570;SDS011;59407;42.682;23.322;2022-11-10T05:45:21;53.03;;;25.60;;
71570;SDS011;59407;42.682;23.322;2022-11-10T05:47:48;59.38;;;29.60;;
71570;SDS011;59407;42.682;23.322;2022-11-10T05:50:14;56.47;;;27.30;;
71570;SDS011;59407;42.682;23.322;2022-11-10T05:52:41;62.95;;;28.80;;
71570;SDS011;59407;42.682;23.322;2022-11-10T05:55:08;54.38;;;27.55;;
71570;SDS011;59407;42.682;23.322;2022-11-10T05:57:34;58.00;;;27.70;;
71570;SDS011;59407;42.682;23.322;2022-11-10T06:00:00;52.07;;;26.70;;
71570;SDS011;59407;42.682;23.322;2022-11-10T06:02:26;57.42;;;27.38;;
71570;SDS011;59407;42.682;23.322;2022-11-10T06:04:53;53.75;;;29.35;;
71570;SDS011;59407;42.682;23.322;2022-11-10T06:07:20;58.83;;;31.40;;
71570;SDS011;59407;42.682;23.322;2022-11-10T06:09:46;57.85;;;29.05;;
71570;SDS011;59407;42.682;23.322;2022-11-10T06:12:12;57.80;;;28.50;;
71570;SDS011;59407;42.682;23.322;2022-11-10T06:14:38;62.40;;;28.83;;
71570;SDS011;59407;42.682;23.322;2022-11-10T06:17:03;61.57;;;30.43;;
71570;SDS011;59407;42.682;23.322;2022-11-10T06:19:29;66.75;;;30.15;;
71570;SDS011;59407;42.682;23.322;2022-11-10T06:21:55;61.30;;;29.37;;
71570;SDS011;59407;42.682;23.322;2022-11-10T06:24:21;60.55;;;29.80;;
71570;SDS011;59407;42.682;23.322;2022-11-10T06:26:46;60.20;;;28.73;;
71570;SDS011;59407;42.682;23.322;2022-11-10T06:29:12;62.33;;;31.95;;
71570;SDS011;59407;42.682;23.322;2022-11-10T06:31:38;61.80;;;32.58;;
71570;SDS011;59407;42.682;23.322;2022-11-10T06:34:05;68.03;;;32.53;;
71570;SDS011;59407;42.682;23.322;2022-11-10T06:36:31;62.25;;;29.10;;
71570;SDS011;59407;42.682;23.322;2022-11-10T06:38:56;61.70;;;29.93;;
71570;SDS011;59407;42.682;23.322;2022-11-10T06:41:23;62.85;;;30.50;;
71570;SDS011;59407;42.682;23.322;2022-11-10T06:43:48;66.50;;;32.30;;
71570;SDS011;59407;42.682;23.322;2022-11-10T06:46:14;62.73;;;29.47;;
71570;SDS011;59407;42.682;23.322;2022-11-10T06:48:39;64.67;;;30.13;;
71570;SDS011;59407;42.682;23.322;2022-11-10T06:51:05;68.47;;;31.13;;
71570;SDS011;59407;42.682;23.322;2022-11-10T06:53:31;71.47;;;33.58;;
71570;SDS011;59407;42.682;23.322;2022-11-10T06:55:56;69.93;;;33.53;;
71570;SDS011;59407;42.682;23.322;2022-11-10T06:58:22;68.40;;;30.87;;
71570;SDS011;59407;42.682;23.322;2022-11-10T07:00:47;68.88;;;32.42;;
71570;SDS011;59407;42.682;23.322;2022-11-10T07:03:14;70.37;;;31.80;;
71570;SDS011;59407;42.682;23.322;2022-11-10T07:05:42;92.65;;;44.05;;
71570;SDS011;59407;42.682;23.322;2022-11-10T07:08:10;80.70;;;40.42;;
71570;SDS011;59407;42.682;23.322;2022-11-10T07:10:43;87.95;;;41.13;;
71570;SDS011;59407;42.682;23.322;2022-11-10T07:13:09;86.68;;;42.42;;
71570;SDS011;59407;42.682;23.322;2022-11-10T07:15:35;81.67;;;40.23;;
71570;SDS011;59407;42.682;23.322;2022-11-10T07:18:04;79.32;;;39.03;;
71570;SDS011;59407;42.682;23.322;2022-11-10T07:20:36;89.32;;;40.80;;
71570;SDS011;59407;42.682;23.322;2022-11-10T07:23:03;90.30;;;41.40;;
71570;SDS011;59407;42.682;23.322;2022-11-10T07:25:32;92.03;;;43.47;;
71570;SDS011;59407;42.682;23.322;2022-11-10T07:28:00;100.93;;;47.28;;
71570;SDS011;59407;42.682;23.322;2022-11-10T07:30:28;95.70;;;49.55;;
71570;SDS011;59407;42.682;23.322;2022-11-10T07:35:27;91.90;;;44.00;;
71570;SDS011;59407;42.682;23.322;2022-11-10T07:37:54;100.27;;;51.17;;
71570;SDS011;59407;42.682;23.322;2022-11-10T07:40:20;84.03;;;44.05;;
71570;SDS011;59407;42.682;23.322;2022-11-10T07:42:46;85.60;;;41.35;;
71570;SDS011;59407;42.682;23.322;2022-11-10T07:45:12;78.40;;;39.07;;
71570;SDS011;59407;42.682;23.322;2022-11-10T07:47:37;87.70;;;41.37;;
71570;SDS011;59407;42.682;23.322;2022-11-10T07:50:03;79.20;;;40.37;;
71570;SDS011;59407;42.682;23.322;2022-11-10T07:52:30;84.67;;;40.10;;
71570;SDS011;59407;42.682;23.322;2022-11-10T07:54:55;90.93;;;44.28;;
71570;SDS011;59407;42.682;23.322;2022-11-10T07:57:21;55.83;;;30.23;;
71570;SDS011;59407;42.682;23.322;2022-11-10T07:59:46;87.20;;;40.10;;
71570;SDS011;59407;42.682;23.322;2022-11-10T08:02:11;81.57;;;40.27;;
71570;SDS011;59407;42.682;23.322;2022-11-10T08:04:37;82.50;;;39.83;;
71570;SDS011;59407;42.682;23.322;2022-11-10T08:07:03;84.37;;;39.40;;
71570;SDS011;59407;42.682;23.322;2022-11-10T08:09:28;80.17;;;37.63;;
71570;SDS011;59407;42.682;23.322;2022-11-10T08:11:54;72.43;;;35.42;;
71570;SDS011;59407;42.682;23.322;2022-11-10T08:14:19;73.10;;;33.23;;
71570;SDS011;59407;42.682;23.322;2022-11-10T08:16:45;94.93;;;42.93;;
71570;SDS011;59407;42.682;23.322;2022-11-10T08:19:10;84.18;;;39.90;;
71570;SDS011;59407;42.682;23.322;2022-11-10T08:21:36;88.57;;;40.23;;
71570;SDS011;59407;42.682;23.322;2022-11-10T08:24:01;85.57;;;40.33;;
71570;SDS011;59407;42.682;23.322;2022-11-10T08:26:26;72.43;;;37.00;;
71570;SDS011;59407;42.682;23.322;2022-11-10T08:28:52;77.93;;;35.83;;
71570;SDS011;59407;42.682;23.322;2022-11-10T08:31:19;68.30;;;33.42;;
71570;SDS011;59407;42.682;23.322;2022-11-10T08:33:44;69.53;;;33.10;;
71570;SDS011;59407;42.682;23.322;2022-11-10T08:36:10;61.07;;;33.67;;
71570;SDS011;59407;42.682;23.322;2022-11-10T08:38:35;57.78;;;29.85;;
71570;SDS011;59407;42.682;23.322;2022-11-10T08:41:00;62.17;;;29.70;;
71570;SDS011;59407;42.682;23.322;2022-11-10T08:43:28;61.45;;;31.20;;
71570;SDS011;59407;42.682;23.322;2022-11-10T08:45:55;80.47;;;37.93;;
71570;SDS011;59407;42.682;23.322;2022-11-10T08:48:22;76.38;;;35.03;;
71570;SDS011;59407;42.682;23.322;2022-11-10T08:50:48;65.72;;;34.33;;
71570;SDS011;59407;42.682;23.322;2022-11-10T08:53:15;66.00;;;36.35;;
71570;SDS011;59407;42.682;23.322;2022-11-10T08:55:42;77.85;;;38.08;;
71570;SDS011;59407;42.682;23.322;2022-11-10T08:58:12;76.77;;;37.13;;
71570;SDS011;59407;42.682;23.322;2022-11-10T09:00:46;78.00;;;37.15;;
71570;SDS011;59407;42.682;23.322;2022-11-10T09:03:15;69.18;;;35.78;;
71570;SDS011;59407;42.682;23.322;2022-11-10T09:05:45;75.80;;;36.53;;
71570;SDS011;59407;42.682;23.322;2022-11-10T09:08:11;65.63;;;35.00;;
71570;SDS011;59407;42.682;23.322;2022-11-10T09:10:39;65.82;;;32.50;;
71570;SDS011;59407;42.682;23.322;2022-11-10T09:13:06;65.05;;;33.25;;
71570;SDS011;59407;42.682;23.322;2022-11-10T09:15:32;69.20;;;36.73;;
71570;SDS011;59407;42.682;23.322;2022-11-10T09:17:58;78.78;;;40.45;;
71570;SDS011;59407;42.682;23.322;2022-11-10T09:20:26;82.68;;;41.40;;
71570;SDS011;59407;42.682;23.322;2022-11-10T09:22:52;82.22;;;40.38;;
71570;SDS011;59407;42.682;23.322;2022-11-10T09:25:20;79.90;;;40.60;;
71570;SDS011;59407;42.682;23.322;2022-11-10T09:27:46;72.63;;;36.88;;
71570;SDS011;59407;42.682;23.322;2022-11-10T09:30:13;76.77;;;37.43;;
71570;SDS011;59407;42.682;23.322;2022-11-10T09:32:38;77.93;;;37.90;;
71570;SDS011;59407;42.682;23.322;2022-11-10T09:35:04;75.30;;;40.80;;
71570;SDS011;59407;42.682;23.322;2022-11-10T09:37:32;74.70;;;39.03;;
71570;SDS011;59407;42.682;23.322;2022-11-10T09:40:04;73.70;;;38.55;;
71570;SDS011;59407;42.682;23.322;2022-11-10T09:42:34;76.15;;;40.20;;
71570;SDS011;59407;42.682;23.322;2022-11-10T09:47:59;79.10;;;40.22;;
71570;SDS011;59407;42.682;23.322;2022-11-10T09:53:29;78.30;;;39.25;;
71570;SDS011;59407;42.682;23.322;2022-11-10T09:56:03;68.22;;;36.13;;
71570;SDS011;59407;42.682;23.322;2022-11-10T09:58:39;75.90;;;37.70;;
71570;SDS011;59407;42.682;23.322;2022-11-10T10:01:10;71.32;;;36.38;;
71570;SDS011;59407;42.682;23.322;2022-11-10T10:03:39;73.60;;;37.80;;
71570;SDS011;59407;42.682;23.322;2022-11-10T10:06:12;73.43;;;38.00;;
71570;SDS011;59407;42.682;23.322;2022-11-10T10:11:22;69.53;;;34.50;;
71570;SDS011;59407;42.682;23.322;2022-11-10T10:16:43;70.17;;;35.87;;
71570;SDS011;59407;42.682;23.322;2022-11-10T10:24:37;61.20;;;33.58;;
71570;SDS011;59407;42.682;23.322;2022-11-10T10:27:04;60.90;;;31.00;;
71570;SDS011;59407;42.682;23.322;2022-11-10T10:29:31;54.90;;;29.98;;
71570;SDS011;59407;42.682;23.322;2022-11-10T10:32:02;59.55;;;30.77;;
71570;SDS011;59407;42.682;23.322;2022-11-10T10:34:28;58.30;;;31.63;;
71570;SDS011;59407;42.682;23.322;2022-11-10T10:36:55;57.88;;;31.60;;
71570;SDS011;59407;42.682;23.322;2022-11-10T10:39:33;55.40;;;28.80;;
71570;SDS011;59407;42.682;23.322;2022-11-10T10:42:01;54.75;;;28.88;;
71570;SDS011;59407;42.682;23.322;2022-11-10T10:44:31;56.72;;;29.48;;
71570;SDS011;59407;42.682;23.322;2022-11-10T10:46:57;49.53;;;27.40;;
71570;SDS011;59407;42.682;23.322;2022-11-10T10:49:28;56.40;;;29.38;;
71570;SDS011;59407;42.682;23.322;2022-11-10T10:54:37;54.90;;;29.50;;
71570;SDS011;59407;42.682;23.322;2022-11-10T10:57:25;55.00;;;27.63;;
71570;SDS011;59407;42.682;23.322;2022-11-10T11:00:40;50.05;;;26.67;;
71570;SDS011;59407;42.682;23.322;2022-11-10T11:03:03;51.00;;;29.15;;
71570;SDS011;59407;42.682;23.322;2022-11-10T11:05:31;54.75;;;28.42;;
71570;SDS011;59407;42.682;23.322;2022-11-10T11:07:58;52.03;;;27.30;;
71570;SDS011;59407;42.682;23.322;2022-11-10T11:10:28;53.45;;;27.52;;
71570;SDS011;59407;42.682;23.322;2022-11-10T11:13:12;50.53;;;27.50;;
71570;SDS011;59407;42.682;23.322;2022-11-10T11:15:38;50.95;;;26.42;;
71570;SDS011;59407;42.682;23.322;2022-11-10T11:18:16;50.10;;;27.07;;
71570;SDS011;59407;42.682;23.322;2022-11-10T11:29:49;51.28;;;27.60;;
71570;SDS011;59407;42.682;23.322;2022-11-10T11:40:17;49.90;;;26.17;;
71570;SDS011;59407;42.682;23.322;2022-11-10T12:00:13;64.47;;;27.00;;
71570;SDS011;59407;42.682;23.322;2022-11-10T12:06:08;60.28;;;27.40;;
71570;SDS011;59407;42.682;23.322;2022-11-10T12:16:33;56.50;;;25.58;;
71570;SDS011;59407;42.682;23.322;2022-11-10T12:27:10;49.63;;;26.53;;
71570;SDS011;59407;42.682;23.322;2022-11-10T12:38:11;44.65;;;25.83;;
71570;SDS011;59407;42.682;23.322;2022-11-10T12:40:39;45.93;;;25.13;;
71570;SDS011;59407;42.682;23.322;2022-11-10T12:43:34;45.75;;;26.45;;
71570;SDS011;59407;42.682;23.322;2022-11-10T12:46:01;43.75;;;24.20;;
71570;SDS011;59407;42.682;23.322;2022-11-10T12:48:33;42.90;;;24.02;;
71570;SDS011;59407;42.682;23.322;2022-11-10T12:51:29;50.63;;;27.35;;
71570;SDS011;59407;42.682;23.322;2022-11-10T12:54:14;44.57;;;25.27;;
71570;SDS011;59407;42.682;23.322;2022-11-10T12:56:48;46.38;;;25.50;;
71570;SDS011;59407;42.682;23.322;2022-11-10T13:01:45;43.08;;;24.52;;
71570;SDS011;59407;42.682;23.322;2022-11-10T13:04:13;43.92;;;24.75;;
71570;SDS011;59407;42.682;23.322;2022-11-10T13:06:44;48.60;;;25.63;;
71570;SDS011;59407;42.682;23.322;2022-11-10T13:09:21;45.88;;;25.25;;
71570;SDS011;59407;42.682;23.322;2022-11-10T13:14:55;44.97;;;23.52;;
71570;SDS011;59407;42.682;23.322;2022-11-10T13:19:53;45.55;;;25.25;;
71570;SDS011;59407;42.682;23.322;2022-11-10T13:27:59;46.28;;;24.85;;
71570;SDS011;59407;42.682;23.322;2022-11-10T13:30:41;44.93;;;23.93;;
71570;SDS011;59407;42.682;23.322;2022-11-10T13:36:08;46.42;;;24.80;;
71570;SDS011;59407;42.682;23.322;2022-11-10T13:38:34;44.43;;;25.40;;
71570;SDS011;59407;42.682;23.322;2022-11-10T13:41:17;44.25;;;24.80;;
71570;SDS011;59407;42.682;23.322;2022-11-10T13:43:49;43.58;;;25.40;;
71570;SDS011;59407;42.682;23.322;2022-11-10T13:46:18;45.22;;;25.10;;
71570;SDS011;59407;42.682;23.322;2022-11-10T13:48:48;49.03;;;26.02;;
71570;SDS011;59407;42.682;23.322;2022-11-10T13:54:02;48.90;;;24.38;;
71570;SDS011;59407;42.682;23.322;2022-11-10T13:59:45;44.35;;;24.73;;
71570;SDS011;59407;42.682;23.322;2022-11-10T14:10:44;44.97;;;25.27;;
71570;SDS011;59407;42.682;23.322;2022-11-10T14:13:17;44.88;;;24.75;;
71570;SDS011;59407;42.682;23.322;2022-11-10T14:15:47;51.88;;;26.02;;
71570;SDS011;59407;42.682;23.322;2022-11-10T14:18:19;45.77;;;24.87;;
71570;SDS011;59407;42.682;23.322;2022-11-10T14:20:51;48.83;;;25.45;;
71570;SDS011;59407;42.682;23.322;2022-11-10T14:23:29;45.28;;;25.15;;
71570;SDS011;59407;42.682;23.322;2022-11-10T14:26:22;47.90;;;24.83;;
71570;SDS011;59407;42.682;23.322;2022-11-10T14:28:51;47.90;;;25.73;;
71570;SDS011;59407;42.682;23.322;2022-11-10T14:31:19;46.17;;;24.80;;
71570;SDS011;59407;42.682;23.322;2022-11-10T14:33:56;47.05;;;26.63;;
71570;SDS011;59407;42.682;23.322;2022-11-10T14:36:23;44.33;;;23.67;;
71570;SDS011;59407;42.682;23.322;2022-11-10T14:38:49;46.85;;;25.35;;
71570;SDS011;59407;42.682;23.322;2022-11-10T14:41:19;42.97;;;25.00;;
71570;SDS011;59407;42.682;23.322;2022-11-10T14:44:02;47.03;;;25.73;;
71570;SDS011;59407;42.682;23.322;2022-11-10T14:46:29;49.03;;;25.63;;
71570;SDS011;59407;42.682;23.322;2022-11-10T14:48:56;46.47;;;25.17;;
71570;SDS011;59407;42.682;23.322;2022-11-10T14:51:24;44.42;;;25.02;;
71570;SDS011;59407;42.682;23.322;2022-11-10T14:53:52;48.20;;;27.15;;
71570;SDS011;59407;42.682;23.322;2022-11-10T14:56:26;46.30;;;24.67;;
71570;SDS011;59407;42.682;23.322;2022-11-10T14:58:56;52.05;;;27.45;;
71570;SDS011;59407;42.682;23.322;2022-11-10T15:03:57;46.28;;;24.25;;
71570;SDS011;59407;42.682;23.322;2022-11-10T15:06:23;48.10;;;25.45;;
71570;SDS011;59407;42.682;23.322;2022-11-10T15:08:49;49.27;;;25.17;;
71570;SDS011;59407;42.682;23.322;2022-11-10T15:14:02;42.70;;;24.27;;
71570;SDS011;59407;42.682;23.322;2022-11-10T15:16:29;49.45;;;23.73;;
71570;SDS011;59407;42.682;23.322;2022-11-10T15:19:17;44.10;;;24.38;;
71570;SDS011;59407;42.682;23.322;2022-11-10T15:21:45;49.17;;;24.50;;
71570;SDS011;59407;42.682;23.322;2022-11-10T15:24:11;44.85;;;23.63;;
71570;SDS011;59407;42.682;23.322;2022-11-10T15:26:39;45.13;;;23.20;;
71570;SDS011;59407;42.682;23.322;2022-11-10T15:29:05;47.78;;;24.52;;
71570;SDS011;59407;42.682;23.322;2022-11-10T15:31:32;47.83;;;25.25;;
71570;SDS011;59407;42.682;23.322;2022-11-10T15:34:02;42.07;;;25.10;;
71570;SDS011;59407;42.682;23.322;2022-11-10T15:36:35;41.38;;;22.33;;
71570;SDS011;59407;42.682;23.322;2022-11-10T15:41:35;40.60;;;23.40;;
71570;SDS011;59407;42.682;23.322;2022-11-10T15:46:57;71.50;;;38.93;;
71570;SDS011;59407;42.682;23.322;2022-11-10T15:52:11;43.35;;;22.30;;
71570;SDS011;59407;42.682;23.322;2022-11-10T15:54:41;47.78;;;23.63;;
71570;SDS011;59407;42.682;23.322;2022-11-10T15:57:11;40.90;;;22.73;;
71570;SDS011;59407;42.682;23.322;2022-11-10T15:59:40;44.65;;;22.92;;
71570;SDS011;59407;42.682;23.322;2022-11-10T16:02:38;46.15;;;23.85;;
71570;SDS011;59407;42.682;23.322;2022-11-10T16:04:57;47.30;;;24.52;;
71570;SDS011;59407;42.682;23.322;2022-11-10T16:07:23;49.23;;;24.90;;
71570;SDS011;59407;42.682;23.322;2022-11-10T16:09:50;49.03;;;23.63;;
71570;SDS011;59407;42.682;23.322;2022-11-10T16:12:20;46.70;;;23.48;;
71570;SDS011;59407;42.682;23.322;2022-11-10T16:14:47;52.97;;;25.17;;
71570;SDS011;59407;42.682;23.322;2022-11-10T16:17:17;49.40;;;24.75;;
71570;SDS011;59407;42.682;23.322;2022-11-10T16:19:44;46.13;;;24.63;;
71570;SDS011;59407;42.682;23.322;2022-11-10T16:22:10;48.47;;;25.02;;
71570;SDS011;59407;42.682;23.322;2022-11-10T16:24:36;42.60;;;23.43;;
71570;SDS011;59407;42.682;23.322;2022-11-10T16:27:04;40.55;;;21.25;;